sensor_id;sensor_type;location;lat;lon;timestamp;P1;durP1;ratioP1;P2;durP2;ratioP2
34984;SDS011;21190;58.750;17.004;2024-02-23T00:02:24;98.82;;;29.98;;
34984;SDS011;21190;58.750;17.004;2024-02-23T00:04:51;105.10;;;29.15;;
34984;SDS011;21190;58.750;17.004;2024-02-23T00:07:19;85.15;;;28.33;;
34984;SDS011;21190;58.750;17.004;2024-02-23T00:09:46;87.25;;;27.42;;
34984;SDS011;21190;58.750;17.004;2024-02-23T00:12:13;84.88;;;26.20;;
34984;SDS011;21190;58.750;17.004;2024-02-23T00:14:40;78.03;;;24.40;;
34984;SDS011;21190;58.750;17.004;2024-02-23T00:17:11;67.50;;;23.00;;
34984;SDS011;21190;58.750;17.004;2024-02-23T00:19:38;78.40;;;24.55;;
34984;SDS011;21190;58.750;17.004;2024-02-23T00:22:05;69.68;;;24.02;;
34984;SDS011;21190;58.750;17.004;2024-02-23T00:24:34;60.15;;;23.00;;
34984;SDS011;21190;58.750;17.004;2024-02-23T00:27:03;64.40;;;22.45;;
34984;SDS011;21190;58.750;17.004;2024-02-23T00:29:30;70.53;;;24.25;;
34984;SDS011;21190;58.750;17.004;2024-02-23T00:31:57;69.47;;;25.23;;
34984;SDS011;21190;58.750;17.004;2024-02-23T00:34:24;73.53;;;24.58;;
34984;SDS011;21190;58.750;17.004;2024-02-23T00:36:51;74.60;;;24.80;;
34984;SDS011;21190;58.750;17.004;2024-02-23T00:39:19;75.63;;;26.77;;
34984;SDS011;21190;58.750;17.004;2024-02-23T00:41:46;84.18;;;25.75;;
34984;SDS011;21190;58.750;17.004;2024-02-23T00:44:13;90.30;;;26.25;;
34984;SDS011;21190;58.750;17.004;2024-02-23T00:46:40;77.95;;;24.80;;
34984;SDS011;21190;58.750;17.004;2024-02-23T00:49:08;73.90;;;27.38;;
34984;SDS011;21190;58.750;17.004;2024-02-23T00:51:35;92.97;;;27.02;;
34984;SDS011;21190;58.750;17.004;2024-02-23T00:54:02;86.28;;;25.33;;
34984;SDS011;21190;58.750;17.004;2024-02-23T00:56:29;75.18;;;26.50;;
34984;SDS011;21190;58.750;17.004;2024-02-23T00:59:10;73.53;;;25.02;;
34984;SDS011;21190;58.750;17.004;2024-02-23T01:01:38;82.72;;;24.38;;
34984;SDS011;21190;58.750;17.004;2024-02-23T01:04:05;79.90;;;25.40;;
34984;SDS011;21190;58.750;17.004;2024-02-23T01:06:32;72.35;;;24.55;;
34984;SDS011;21190;58.750;17.004;2024-02-23T01:08:59;67.72;;;23.30;;
34984;SDS011;21190;58.750;17.004;2024-02-23T01:11:26;77.63;;;24.80;;
34984;SDS011;21190;58.750;17.004;2024-02-23T01:13:53;72.60;;;24.23;;
34984;SDS011;21190;58.750;17.004;2024-02-23T01:16:20;77.95;;;25.10;;
34984;SDS011;21190;58.750;17.004;2024-02-23T01:18:47;78.35;;;23.60;;
34984;SDS011;21190;58.750;17.004;2024-02-23T01:21:15;65.30;;;22.33;;
34984;SDS011;21190;58.750;17.004;2024-02-23T01:23:42;63.20;;;22.70;;
34984;SDS011;21190;58.750;17.004;2024-02-23T01:26:09;68.13;;;23.55;;
34984;SDS011;21190;58.750;17.004;2024-02-23T01:28:36;68.55;;;23.20;;
34984;SDS011;21190;58.750;17.004;2024-02-23T01:31:03;76.15;;;25.52;;
34984;SDS011;21190;58.750;17.004;2024-02-23T01:33:30;76.45;;;24.52;;
34984;SDS011;21190;58.750;17.004;2024-02-23T01:35:57;81.40;;;25.88;;
34984;SDS011;21190;58.750;17.004;2024-02-23T01:38:25;81.95;;;26.50;;
34984;SDS011;21190;58.750;17.004;2024-02-23T01:40:57;98.50;;;27.13;;
34984;SDS011;21190;58.750;17.004;2024-02-23T01:43:28;75.07;;;24.75;;
34984;SDS011;21190;58.750;17.004;2024-02-23T01:45:55;94.35;;;26.38;;
34984;SDS011;21190;58.750;17.004;2024-02-23T01:48:25;71.18;;;24.88;;
34984;SDS011;21190;58.750;17.004;2024-02-23T01:50:53;85.65;;;26.92;;
34984;SDS011;21190;58.750;17.004;2024-02-23T01:53:20;85.22;;;26.52;;
34984;SDS011;21190;58.750;17.004;2024-02-23T01:55:49;76.57;;;26.90;;
34984;SDS011;21190;58.750;17.004;2024-02-23T01:58:17;90.78;;;26.80;;
34984;SDS011;21190;58.750;17.004;2024-02-23T02:00:44;83.15;;;25.40;;
34984;SDS011;21190;58.750;17.004;2024-02-23T02:03:12;76.50;;;26.10;;
34984;SDS011;21190;58.750;17.004;2024-02-23T02:05:39;88.38;;;26.27;;
34984;SDS011;21190;58.750;17.004;2024-02-23T02:08:06;77.65;;;25.13;;
34984;SDS011;21190;58.750;17.004;2024-02-23T02:10:34;67.63;;;23.20;;
34984;SDS011;21190;58.750;17.004;2024-02-23T02:13:01;81.97;;;25.70;;
34984;SDS011;21190;58.750;17.004;2024-02-23T02:15:29;72.88;;;25.33;;
34984;SDS011;21190;58.750;17.004;2024-02-23T02:17:56;69.63;;;23.20;;
34984;SDS011;21190;58.750;17.004;2024-02-23T02:20:24;76.80;;;25.73;;
34984;SDS011;21190;58.750;17.004;2024-02-23T02:22:54;76.18;;;25.42;;
34984;SDS011;21190;58.750;17.004;2024-02-23T02:25:22;78.07;;;23.02;;
34984;SDS011;21190;58.750;17.004;2024-02-23T02:27:49;82.32;;;24.38;;
34984;SDS011;21190;58.750;17.004;2024-02-23T02:30:16;77.63;;;24.27;;
34984;SDS011;21190;58.750;17.004;2024-02-23T02:32:43;85.32;;;25.38;;
34984;SDS011;21190;58.750;17.004;2024-02-23T02:35:11;93.32;;;25.80;;
34984;SDS011;21190;58.750;17.004;2024-02-23T02:37:39;91.65;;;25.58;;
34984;SDS011;21190;58.750;17.004;2024-02-23T02:40:06;90.10;;;25.75;;
34984;SDS011;21190;58.750;17.004;2024-02-23T02:42:34;91.28;;;25.73;;
34984;SDS011;21190;58.750;17.004;2024-02-23T02:45:01;83.47;;;24.35;;
34984;SDS011;21190;58.750;17.004;2024-02-23T02:47:29;85.00;;;23.88;;
34984;SDS011;21190;58.750;17.004;2024-02-23T02:49:57;81.28;;;22.80;;
34984;SDS011;21190;58.750;17.004;2024-02-23T02:52:24;84.10;;;25.30;;
34984;SDS011;21190;58.750;17.004;2024-02-23T02:54:51;70.00;;;21.30;;
34984;SDS011;21190;58.750;17.004;2024-02-23T02:57:18;68.97;;;22.15;;
34984;SDS011;21190;58.750;17.004;2024-02-23T02:59:45;76.47;;;22.73;;
34984;SDS011;21190;58.750;17.004;2024-02-23T03:02:12;91.13;;;24.25;;
34984;SDS011;21190;58.750;17.004;2024-02-23T03:04:46;89.55;;;24.33;;
34984;SDS011;21190;58.750;17.004;2024-02-23T03:07:14;104.15;;;25.27;;
34984;SDS011;21190;58.750;17.004;2024-02-23T03:09:47;80.85;;;22.48;;
34984;SDS011;21190;58.750;17.004;2024-02-23T03:12:17;94.05;;;23.33;;
34984;SDS011;21190;58.750;17.004;2024-02-23T03:14:44;85.10;;;21.67;;
34984;SDS011;21190;58.750;17.004;2024-02-23T03:17:14;85.80;;;22.90;;
34984;SDS011;21190;58.750;17.004;2024-02-23T03:19:42;83.47;;;21.30;;
34984;SDS011;21190;58.750;17.004;2024-02-23T03:22:09;94.10;;;22.38;;
34984;SDS011;21190;58.750;17.004;2024-02-23T03:24:36;101.07;;;21.75;;
34984;SDS011;21190;58.750;17.004;2024-02-23T03:27:04;74.47;;;21.17;;
34984;SDS011;21190;58.750;17.004;2024-02-23T03:29:31;107.55;;;22.10;;
34984;SDS011;21190;58.750;17.004;2024-02-23T03:31:58;87.22;;;20.58;;
34984;SDS011;21190;58.750;17.004;2024-02-23T03:34:28;88.35;;;23.05;;
34984;SDS011;21190;58.750;17.004;2024-02-23T03:36:55;88.00;;;20.80;;
34984;SDS011;21190;58.750;17.004;2024-02-23T03:39:22;83.47;;;20.98;;
34984;SDS011;21190;58.750;17.004;2024-02-23T03:41:49;99.63;;;21.65;;
34984;SDS011;21190;58.750;17.004;2024-02-23T03:44:16;89.57;;;19.27;;
34984;SDS011;21190;58.750;17.004;2024-02-23T03:46:43;75.40;;;19.13;;
34984;SDS011;21190;58.750;17.004;2024-02-23T03:49:10;110.78;;;19.95;;
34984;SDS011;21190;58.750;17.004;2024-02-23T03:51:38;90.25;;;18.08;;
34984;SDS011;21190;58.750;17.004;2024-02-23T03:54:06;93.97;;;19.17;;
34984;SDS011;21190;58.750;17.004;2024-02-23T03:56:39;77.50;;;18.23;;
34984;SDS011;21190;58.750;17.004;2024-02-23T03:59:08;83.45;;;18.85;;
34984;SDS011;21190;58.750;17.004;2024-02-23T04:01:39;72.80;;;18.10;;
34984;SDS011;21190;58.750;17.004;2024-02-23T04:04:06;82.88;;;17.50;;
34984;SDS011;21190;58.750;17.004;2024-02-23T04:06:34;84.97;;;17.73;;
34984;SDS011;21190;58.750;17.004;2024-02-23T04:09:01;86.20;;;17.73;;
34984;SDS011;21190;58.750;17.004;2024-02-23T04:11:31;65.55;;;17.90;;
34984;SDS011;21190;58.750;17.004;2024-02-23T04:13:59;75.63;;;16.88;;
34984;SDS011;21190;58.750;17.004;2024-02-23T04:16:27;90.20;;;17.30;;
34984;SDS011;21190;58.750;17.004;2024-02-23T04:18:54;107.63;;;18.75;;
34984;SDS011;21190;58.750;17.004;2024-02-23T04:21:23;73.68;;;17.63;;
34984;SDS011;21190;58.750;17.004;2024-02-23T04:23:50;76.32;;;16.58;;
34984;SDS011;21190;58.750;17.004;2024-02-23T04:26:18;83.38;;;15.77;;
34984;SDS011;21190;58.750;17.004;2024-02-23T04:28:45;98.43;;;18.70;;
34984;SDS011;21190;58.750;17.004;2024-02-23T04:31:12;90.65;;;17.70;;
34984;SDS011;21190;58.750;17.004;2024-02-23T04:33:39;88.57;;;17.65;;
34984;SDS011;21190;58.750;17.004;2024-02-23T04:36:07;74.45;;;15.50;;
34984;SDS011;21190;58.750;17.004;2024-02-23T04:38:34;68.88;;;16.15;;
34984;SDS011;21190;58.750;17.004;2024-02-23T04:41:03;79.03;;;16.23;;
34984;SDS011;21190;58.750;17.004;2024-02-23T04:43:31;113.32;;;16.90;;
34984;SDS011;21190;58.750;17.004;2024-02-23T04:45:59;86.57;;;16.80;;
34984;SDS011;21190;58.750;17.004;2024-02-23T04:48:26;75.72;;;15.27;;
34984;SDS011;21190;58.750;17.004;2024-02-23T04:50:53;71.43;;;15.48;;
34984;SDS011;21190;58.750;17.004;2024-02-23T04:53:20;83.30;;;19.10;;
34984;SDS011;21190;58.750;17.004;2024-02-23T04:55:47;82.18;;;17.27;;
34984;SDS011;21190;58.750;17.004;2024-02-23T04:58:14;73.80;;;15.90;;
34984;SDS011;21190;58.750;17.004;2024-02-23T05:00:42;78.82;;;17.48;;
34984;SDS011;21190;58.750;17.004;2024-02-23T05:03:09;74.32;;;15.85;;
34984;SDS011;21190;58.750;17.004;2024-02-23T05:05:38;74.80;;;17.92;;
34984;SDS011;21190;58.750;17.004;2024-02-23T05:08:06;81.07;;;19.05;;
34984;SDS011;21190;58.750;17.004;2024-02-23T05:10:33;76.05;;;18.05;;
34984;SDS011;21190;58.750;17.004;2024-02-23T05:13:01;79.65;;;18.92;;
34984;SDS011;21190;58.750;17.004;2024-02-23T05:15:28;82.28;;;18.45;;
34984;SDS011;21190;58.750;17.004;2024-02-23T05:17:55;71.60;;;17.95;;
34984;SDS011;21190;58.750;17.004;2024-02-23T05:20:22;62.75;;;19.05;;
34984;SDS011;21190;58.750;17.004;2024-02-23T05:22:49;45.83;;;15.38;;
34984;SDS011;21190;58.750;17.004;2024-02-23T05:25:16;51.28;;;16.33;;
34984;SDS011;21190;58.750;17.004;2024-02-23T05:27:43;42.75;;;15.18;;
34984;SDS011;21190;58.750;17.004;2024-02-23T05:30:10;48.08;;;14.25;;
34984;SDS011;21190;58.750;17.004;2024-02-23T05:32:40;32.78;;;11.88;;
34984;SDS011;21190;58.750;17.004;2024-02-23T05:35:07;30.38;;;11.63;;
34984;SDS011;21190;58.750;17.004;2024-02-23T05:37:35;30.98;;;12.02;;
34984;SDS011;21190;58.750;17.004;2024-02-23T05:40:03;30.40;;;11.95;;
34984;SDS011;21190;58.750;17.004;2024-02-23T05:42:37;28.25;;;11.70;;
34984;SDS011;21190;58.750;17.004;2024-02-23T05:45:06;32.75;;;13.40;;
34984;SDS011;21190;58.750;17.004;2024-02-23T05:47:36;29.10;;;13.07;;
34984;SDS011;21190;58.750;17.004;2024-02-23T05:50:04;30.30;;;12.80;;
34984;SDS011;21190;58.750;17.004;2024-02-23T05:52:32;33.50;;;13.98;;
34984;SDS011;21190;58.750;17.004;2024-02-23T05:55:00;33.63;;;13.82;;
34984;SDS011;21190;58.750;17.004;2024-02-23T05:57:27;38.13;;;15.15;;
34984;SDS011;21190;58.750;17.004;2024-02-23T05:59:54;38.67;;;14.60;;
34984;SDS011;21190;58.750;17.004;2024-02-23T06:02:22;42.03;;;15.50;;
34984;SDS011;21190;58.750;17.004;2024-02-23T06:04:49;34.40;;;14.38;;
34984;SDS011;21190;58.750;17.004;2024-02-23T06:07:17;29.33;;;15.15;;
34984;SDS011;21190;58.750;17.004;2024-02-23T06:09:44;31.35;;;15.52;;
34984;SDS011;21190;58.750;17.004;2024-02-23T06:12:14;36.08;;;15.55;;
34984;SDS011;21190;58.750;17.004;2024-02-23T06:14:43;42.38;;;15.80;;
34984;SDS011;21190;58.750;17.004;2024-02-23T06:17:13;37.50;;;15.48;;
34984;SDS011;21190;58.750;17.004;2024-02-23T06:19:40;34.42;;;16.40;;
34984;SDS011;21190;58.750;17.004;2024-02-23T06:22:08;38.15;;;16.85;;
34984;SDS011;21190;58.750;17.004;2024-02-23T06:24:37;37.85;;;16.85;;
34984;SDS011;21190;58.750;17.004;2024-02-23T06:27:04;38.17;;;15.52;;
34984;SDS011;21190;58.750;17.004;2024-02-23T06:29:31;37.50;;;16.92;;
34984;SDS011;21190;58.750;17.004;2024-02-23T06:31:58;39.00;;;16.77;;
34984;SDS011;21190;58.750;17.004;2024-02-23T06:34:28;37.42;;;16.35;;
34984;SDS011;21190;58.750;17.004;2024-02-23T06:36:55;35.22;;;16.13;;
34984;SDS011;21190;58.750;17.004;2024-02-23T06:39:22;38.42;;;16.50;;
34984;SDS011;21190;58.750;17.004;2024-02-23T06:41:50;30.35;;;15.05;;
34984;SDS011;21190;58.750;17.004;2024-02-23T06:44:17;29.48;;;14.88;;
34984;SDS011;21190;58.750;17.004;2024-02-23T06:46:45;30.08;;;15.90;;
34984;SDS011;21190;58.750;17.004;2024-02-23T06:49:12;37.15;;;15.88;;
34984;SDS011;21190;58.750;17.004;2024-02-23T06:51:40;29.60;;;14.18;;
34984;SDS011;21190;58.750;17.004;2024-02-23T06:54:08;27.85;;;14.38;;
34984;SDS011;21190;58.750;17.004;2024-02-23T06:56:35;30.73;;;14.10;;
34984;SDS011;21190;58.750;17.004;2024-02-23T06:59:03;31.48;;;14.98;;
34984;SDS011;21190;58.750;17.004;2024-02-23T07:01:30;26.85;;;14.05;;
34984;SDS011;21190;58.750;17.004;2024-02-23T07:03:57;30.98;;;13.93;;
34984;SDS011;21190;58.750;17.004;2024-02-23T07:06:25;35.53;;;14.90;;
34984;SDS011;21190;58.750;17.004;2024-02-23T07:08:55;30.52;;;14.93;;
34984;SDS011;21190;58.750;17.004;2024-02-23T07:11:22;27.65;;;13.07;;
34984;SDS011;21190;58.750;17.004;2024-02-23T07:13:49;30.67;;;12.90;;
34984;SDS011;21190;58.750;17.004;2024-02-23T07:16:17;27.17;;;13.13;;
34984;SDS011;21190;58.750;17.004;2024-02-23T07:18:44;24.80;;;12.27;;
34984;SDS011;21190;58.750;17.004;2024-02-23T07:21:12;29.73;;;12.00;;
34984;SDS011;21190;58.750;17.004;2024-02-23T07:23:39;25.75;;;12.02;;
34984;SDS011;21190;58.750;17.004;2024-02-23T07:26:06;24.13;;;11.50;;
34984;SDS011;21190;58.750;17.004;2024-02-23T07:28:34;24.55;;;10.93;;
34984;SDS011;21190;58.750;17.004;2024-02-23T07:31:01;25.40;;;11.95;;
34984;SDS011;21190;58.750;17.004;2024-02-23T07:33:28;23.02;;;11.27;;
34984;SDS011;21190;58.750;17.004;2024-02-23T07:35:55;29.42;;;11.98;;
34984;SDS011;21190;58.750;17.004;2024-02-23T07:38:22;27.38;;;11.00;;
34984;SDS011;21190;58.750;17.004;2024-02-23T07:40:49;29.10;;;10.93;;
34984;SDS011;21190;58.750;17.004;2024-02-23T07:43:17;24.92;;;10.35;;
34984;SDS011;21190;58.750;17.004;2024-02-23T07:45:44;28.65;;;13.02;;
34984;SDS011;21190;58.750;17.004;2024-02-23T07:48:11;24.42;;;12.20;;
34984;SDS011;21190;58.750;17.004;2024-02-23T07:50:38;31.05;;;11.85;;
34984;SDS011;21190;58.750;17.004;2024-02-23T07:53:05;32.85;;;12.93;;
34984;SDS011;21190;58.750;17.004;2024-02-23T07:55:32;26.52;;;12.43;;
34984;SDS011;21190;58.750;17.004;2024-02-23T07:57:59;28.92;;;12.95;;
34984;SDS011;21190;58.750;17.004;2024-02-23T08:00:28;25.75;;;11.50;;
34984;SDS011;21190;58.750;17.004;2024-02-23T08:02:55;28.33;;;13.60;;
34984;SDS011;21190;58.750;17.004;2024-02-23T08:05:26;23.35;;;11.73;;
34984;SDS011;21190;58.750;17.004;2024-02-23T08:07:53;29.70;;;12.38;;
34984;SDS011;21190;58.750;17.004;2024-02-23T08:10:21;31.10;;;13.43;;
34984;SDS011;21190;58.750;17.004;2024-02-23T08:12:48;26.48;;;12.10;;
34984;SDS011;21190;58.750;17.004;2024-02-23T08:15:15;26.30;;;12.25;;
34984;SDS011;21190;58.750;17.004;2024-02-23T08:17:42;25.30;;;12.52;;
34984;SDS011;21190;58.750;17.004;2024-02-23T08:20:10;31.30;;;13.85;;
34984;SDS011;21190;58.750;17.004;2024-02-23T08:22:37;23.60;;;12.35;;
34984;SDS011;21190;58.750;17.004;2024-02-23T08:25:04;30.75;;;13.15;;
34984;SDS011;21190;58.750;17.004;2024-02-23T08:27:31;28.83;;;11.73;;
34984;SDS011;21190;58.750;17.004;2024-02-23T08:29:58;34.53;;;13.45;;
34984;SDS011;21190;58.750;17.004;2024-02-23T08:32:25;29.23;;;12.35;;
34984;SDS011;21190;58.750;17.004;2024-02-23T08:34:53;28.88;;;12.65;;
34984;SDS011;21190;58.750;17.004;2024-02-23T08:37:26;33.03;;;12.48;;
34984;SDS011;21190;58.750;17.004;2024-02-23T08:39:53;24.17;;;11.57;;
34984;SDS011;21190;58.750;17.004;2024-02-23T08:42:20;30.90;;;12.60;;
34984;SDS011;21190;58.750;17.004;2024-02-23T08:44:48;23.00;;;11.65;;
34984;SDS011;21190;58.750;17.004;2024-02-23T08:47:15;23.55;;;11.85;;
34984;SDS011;21190;58.750;17.004;2024-02-23T08:49:42;25.80;;;11.63;;
34984;SDS011;21190;58.750;17.004;2024-02-23T08:52:09;21.55;;;11.82;;
34984;SDS011;21190;58.750;17.004;2024-02-23T08:54:36;17.05;;;10.20;;
34984;SDS011;21190;58.750;17.004;2024-02-23T08:57:06;20.15;;;10.98;;
34984;SDS011;21190;58.750;17.004;2024-02-23T08:59:33;24.98;;;10.20;;
34984;SDS011;21190;58.750;17.004;2024-02-23T09:02:00;23.50;;;10.10;;
34984;SDS011;21190;58.750;17.004;2024-02-23T09:04:29;18.95;;;9.98;;
34984;SDS011;21190;58.750;17.004;2024-02-23T09:06:56;19.92;;;10.13;;
34984;SDS011;21190;58.750;17.004;2024-02-23T09:09:23;18.40;;;10.30;;
34984;SDS011;21190;58.750;17.004;2024-02-23T09:11:51;16.80;;;9.07;;
34984;SDS011;21190;58.750;17.004;2024-02-23T09:14:18;18.70;;;9.05;;
34984;SDS011;21190;58.750;17.004;2024-02-23T09:16:45;15.52;;;9.77;;
34984;SDS011;21190;58.750;17.004;2024-02-23T09:19:13;17.67;;;8.10;;
34984;SDS011;21190;58.750;17.004;2024-02-23T09:21:40;15.63;;;7.75;;
34984;SDS011;21190;58.750;17.004;2024-02-23T09:24:07;14.45;;;7.68;;
34984;SDS011;21190;58.750;17.004;2024-02-23T09:26:35;17.00;;;8.52;;
34984;SDS011;21190;58.750;17.004;2024-02-23T09:29:02;15.73;;;7.72;;
34984;SDS011;21190;58.750;17.004;2024-02-23T09:31:29;14.60;;;8.50;;
34984;SDS011;21190;58.750;17.004;2024-02-23T09:33:57;15.73;;;7.80;;
34984;SDS011;21190;58.750;17.004;2024-02-23T09:36:25;16.38;;;8.15;;
34984;SDS011;21190;58.750;17.004;2024-02-23T09:38:52;17.88;;;8.18;;
34984;SDS011;21190;58.750;17.004;2024-02-23T09:41:20;14.15;;;7.45;;
34984;SDS011;21190;58.750;17.004;2024-02-23T09:43:49;10.70;;;6.47;;
34984;SDS011;21190;58.750;17.004;2024-02-23T09:46:17;12.70;;;6.10;;
34984;SDS011;21190;58.750;17.004;2024-02-23T09:48:45;10.75;;;5.78;;
34984;SDS011;21190;58.750;17.004;2024-02-23T09:51:12;6.95;;;4.97;;
34984;SDS011;21190;58.750;17.004;2024-02-23T09:53:41;12.10;;;5.53;;
34984;SDS011;21190;58.750;17.004;2024-02-23T09:56:09;7.55;;;4.20;;
34984;SDS011;21190;58.750;17.004;2024-02-23T09:58:37;5.13;;;3.55;;
34984;SDS011;21190;58.750;17.004;2024-02-23T10:01:07;7.10;;;3.70;;
34984;SDS011;21190;58.750;17.004;2024-02-23T10:03:38;6.38;;;3.00;;
34984;SDS011;21190;58.750;17.004;2024-02-23T10:06:06;6.07;;;2.55;;
34984;SDS011;21190;58.750;17.004;2024-02-23T10:08:33;4.32;;;2.40;;
34984;SDS011;21190;58.750;17.004;2024-02-23T10:11:00;3.10;;;1.75;;
34984;SDS011;21190;58.750;17.004;2024-02-23T10:13:29;2.63;;;1.60;;
34984;SDS011;21190;58.750;17.004;2024-02-23T10:15:56;2.97;;;1.73;;
34984;SDS011;21190;58.750;17.004;2024-02-23T10:18:40;5.40;;;2.00;;
34984;SDS011;21190;58.750;17.004;2024-02-23T10:21:07;3.90;;;1.30;;
34984;SDS011;21190;58.750;17.004;2024-02-23T10:23:34;1.83;;;0.98;;
34984;SDS011;21190;58.750;17.004;2024-02-23T10:26:07;6.43;;;0.88;;
34984;SDS011;21190;58.750;17.004;2024-02-23T10:28:35;1.70;;;0.68;;
34984;SDS011;21190;58.750;17.004;2024-02-23T10:31:05;3.35;;;1.13;;
34984;SDS011;21190;58.750;17.004;2024-02-23T10:33:36;1.98;;;0.75;;
34984;SDS011;21190;58.750;17.004;2024-02-23T10:36:06;3.10;;;0.40;;
34984;SDS011;21190;58.750;17.004;2024-02-23T10:38:37;1.95;;;0.88;;
34984;SDS011;21190;58.750;17.004;2024-02-23T10:41:08;2.45;;;0.38;;
34984;SDS011;21190;58.750;17.004;2024-02-23T10:43:44;2.42;;;0.40;;
34984;SDS011;21190;58.750;17.004;2024-02-23T10:46:15;3.13;;;0.80;;
34984;SDS011;21190;58.750;17.004;2024-02-23T10:48:43;2.33;;;0.50;;
34984;SDS011;21190;58.750;17.004;2024-02-23T10:51:13;2.60;;;0.93;;
34984;SDS011;21190;58.750;17.004;2024-02-23T10:53:46;3.58;;;0.43;;
34984;SDS011;21190;58.750;17.004;2024-02-23T10:56:15;4.68;;;0.75;;
34984;SDS011;21190;58.750;17.004;2024-02-23T10:58:42;3.08;;;0.73;;
34984;SDS011;21190;58.750;17.004;2024-02-23T11:01:09;1.65;;;0.50;;
34984;SDS011;21190;58.750;17.004;2024-02-23T11:03:38;4.22;;;1.00;;
34984;SDS011;21190;58.750;17.004;2024-02-23T11:06:07;5.00;;;0.60;;
34984;SDS011;21190;58.750;17.004;2024-02-23T11:08:35;3.28;;;0.65;;
34984;SDS011;21190;58.750;17.004;2024-02-23T11:11:09;1.48;;;0.50;;
34984;SDS011;21190;58.750;17.004;2024-02-23T11:13:38;4.78;;;0.80;;
34984;SDS011;21190;58.750;17.004;2024-02-23T11:16:05;4.03;;;0.75;;
34984;SDS011;21190;58.750;17.004;2024-02-23T11:18:39;2.60;;;0.73;;
34984;SDS011;21190;58.750;17.004;2024-02-23T11:21:09;3.35;;;0.82;;
34984;SDS011;21190;58.750;17.004;2024-02-23T11:24:15;9.35;;;1.35;;
34984;SDS011;21190;58.750;17.004;2024-02-23T11:26:31;5.53;;;1.02;;
34984;SDS011;21190;58.750;17.004;2024-02-23T11:29:09;4.18;;;0.50;;
34984;SDS011;21190;58.750;17.004;2024-02-23T11:31:37;3.10;;;0.52;;
34984;SDS011;21190;58.750;17.004;2024-02-23T11:34:12;5.75;;;1.10;;
34984;SDS011;21190;58.750;17.004;2024-02-23T11:36:39;3.28;;;0.50;;
34984;SDS011;21190;58.750;17.004;2024-02-23T11:39:06;4.20;;;0.50;;
34984;SDS011;21190;58.750;17.004;2024-02-23T11:41:36;6.00;;;0.75;;
34984;SDS011;21190;58.750;17.004;2024-02-23T11:44:04;6.70;;;1.30;;
34984;SDS011;21190;58.750;17.004;2024-02-23T11:46:33;5.70;;;1.67;;
34984;SDS011;21190;58.750;17.004;2024-02-23T11:49:00;4.68;;;0.80;;
34984;SDS011;21190;58.750;17.004;2024-02-23T11:51:28;2.72;;;0.70;;
34984;SDS011;21190;58.750;17.004;2024-02-23T11:53:57;4.88;;;0.82;;
34984;SDS011;21190;58.750;17.004;2024-02-23T11:56:25;11.77;;;1.02;;
34984;SDS011;21190;58.750;17.004;2024-02-23T11:58:55;4.00;;;0.80;;
34984;SDS011;21190;58.750;17.004;2024-02-23T12:01:22;6.28;;;1.08;;
34984;SDS011;21190;58.750;17.004;2024-02-23T12:03:49;9.15;;;0.98;;
34984;SDS011;21190;58.750;17.004;2024-02-23T12:06:17;4.63;;;0.98;;
34984;SDS011;21190;58.750;17.004;2024-02-23T12:08:44;7.15;;;1.48;;
34984;SDS011;21190;58.750;17.004;2024-02-23T12:11:13;5.47;;;0.75;;
34984;SDS011;21190;58.750;17.004;2024-02-23T12:13:41;6.40;;;1.08;;
34984;SDS011;21190;58.750;17.004;2024-02-23T12:16:09;8.65;;;1.00;;
34984;SDS011;21190;58.750;17.004;2024-02-23T12:18:36;6.25;;;1.40;;
34984;SDS011;21190;58.750;17.004;2024-02-23T12:21:04;6.13;;;0.98;;
34984;SDS011;21190;58.750;17.004;2024-02-23T12:23:42;7.68;;;0.82;;
34984;SDS011;21190;58.750;17.004;2024-02-23T12:26:14;3.92;;;0.80;;
34984;SDS011;21190;58.750;17.004;2024-02-23T12:28:42;6.70;;;1.17;;
34984;SDS011;21190;58.750;17.004;2024-02-23T12:31:10;4.68;;;1.02;;
34984;SDS011;21190;58.750;17.004;2024-02-23T12:33:38;7.90;;;0.88;;
34984;SDS011;21190;58.750;17.004;2024-02-23T12:36:07;7.68;;;1.30;;
34984;SDS011;21190;58.750;17.004;2024-02-23T12:38:35;5.18;;;0.80;;
34984;SDS011;21190;58.750;17.004;2024-02-23T12:41:04;5.53;;;1.08;;
34984;SDS011;21190;58.750;17.004;2024-02-23T12:43:31;10.43;;;0.95;;
34984;SDS011;21190;58.750;17.004;2024-02-23T12:45:58;7.78;;;1.10;;
34984;SDS011;21190;58.750;17.004;2024-02-23T12:48:28;7.82;;;0.80;;
34984;SDS011;21190;58.750;17.004;2024-02-23T12:50:55;3.78;;;0.88;;
34984;SDS011;21190;58.750;17.004;2024-02-23T12:53:32;6.97;;;1.10;;
34984;SDS011;21190;58.750;17.004;2024-02-23T12:56:01;6.05;;;0.90;;
34984;SDS011;21190;58.750;17.004;2024-02-23T12:58:37;5.53;;;0.63;;
34984;SDS011;21190;58.750;17.004;2024-02-23T13:01:06;4.22;;;1.20;;
34984;SDS011;21190;58.750;17.004;2024-02-23T13:03:34;9.13;;;0.98;;
34984;SDS011;21190;58.750;17.004;2024-02-23T13:06:03;10.38;;;1.65;;
34984;SDS011;21190;58.750;17.004;2024-02-23T13:08:31;5.72;;;0.73;;
34984;SDS011;21190;58.750;17.004;2024-02-23T13:10:58;4.95;;;1.05;;
34984;SDS011;21190;58.750;17.004;2024-02-23T13:13:26;5.05;;;1.17;;
34984;SDS011;21190;58.750;17.004;2024-02-23T13:15:54;12.40;;;1.95;;
34984;SDS011;21190;58.750;17.004;2024-02-23T13:18:23;4.20;;;0.95;;
34984;SDS011;21190;58.750;17.004;2024-02-23T13:20:50;4.30;;;1.17;;
34984;SDS011;21190;58.750;17.004;2024-02-23T13:23:18;4.60;;;0.82;;
34984;SDS011;21190;58.750;17.004;2024-02-23T13:25:45;4.85;;;2.20;;
34984;SDS011;21190;58.750;17.004;2024-02-23T13:28:12;4.40;;;0.60;;
34984;SDS011;21190;58.750;17.004;2024-02-23T13:30:39;8.52;;;1.08;;
34984;SDS011;21190;58.750;17.004;2024-02-23T13:33:08;8.23;;;1.05;;
34984;SDS011;21190;58.750;17.004;2024-02-23T13:35:38;4.50;;;0.70;;
34984;SDS011;21190;58.750;17.004;2024-02-23T13:38:06;9.85;;;1.23;;
34984;SDS011;21190;58.750;17.004;2024-02-23T13:40:34;7.53;;;1.08;;
34984;SDS011;21190;58.750;17.004;2024-02-23T13:43:01;6.18;;;1.08;;
34984;SDS011;21190;58.750;17.004;2024-02-23T13:45:28;6.22;;;1.20;;
34984;SDS011;21190;58.750;17.004;2024-02-23T13:47:58;7.40;;;0.90;;
34984;SDS011;21190;58.750;17.004;2024-02-23T13:50:27;6.70;;;1.65;;
34984;SDS011;21190;58.750;17.004;2024-02-23T13:52:55;4.40;;;1.17;;
34984;SDS011;21190;58.750;17.004;2024-02-23T13:55:22;5.40;;;1.08;;
34984;SDS011;21190;58.750;17.004;2024-02-23T13:57:50;7.20;;;1.33;;
34984;SDS011;21190;58.750;17.004;2024-02-23T14:00:18;6.80;;;1.42;;
34984;SDS011;21190;58.750;17.004;2024-02-23T14:02:46;5.80;;;1.15;;
34984;SDS011;21190;58.750;17.004;2024-02-23T14:05:15;7.75;;;1.45;;
34984;SDS011;21190;58.750;17.004;2024-02-23T14:07:45;7.63;;;1.35;;
34984;SDS011;21190;58.750;17.004;2024-02-23T14:10:12;4.57;;;1.80;;
34984;SDS011;21190;58.750;17.004;2024-02-23T14:12:40;5.63;;;0.98;;
34984;SDS011;21190;58.750;17.004;2024-02-23T14:15:08;4.30;;;0.98;;
34984;SDS011;21190;58.750;17.004;2024-02-23T14:17:37;5.53;;;0.90;;
34984;SDS011;21190;58.750;17.004;2024-02-23T14:20:04;3.42;;;0.82;;
34984;SDS011;21190;58.750;17.004;2024-02-23T14:22:33;6.88;;;1.35;;